CMB827 Details

Departure: Wake Island Airfield (PWAK)
Arrival: Daniel K Inouye International Airport (PHNL)
Route: AWK 2000N/17000E 2100N/18000E 2100N/17000W KATHS
Notes: USTRANSCOM CONTRACT FLIGHT


Current Weather Information
PWAK 232258Z AUTO 06018KT 9999 RA SCT009 BKN025 24/22 A2993 RMK AO2 PK WND 05028/2157 CIG 025V030 BKN V OVC SLP142 P0000 T02390223 $
PHNL 232253Z 16009KT 10SM FEW025 FEW045 31/20 A3003 RMK AO2 SLP167 T03060200